• Join FlightAware (Why Join?)
  • Login
  • US Flag 
09:39AM EST


 

Airport Tracker/Info


-or-


 

Live Flight TrackerFlight Track Log ✈ N242SG ✈ 28-Apr-2012 ✈ KPIT - KJYO

Flight Track Log - Related Links

Times and Time Zones

All times are in EDT time to prevent confusion due to time zone crossing. See the N242SG flight status page for this flight to view local times or setup timezone preferences in your user account.

Time Position Orientation Groundspeed Altitude Reporting Facility
EDT Latitude Longitude Course Direction KTS MPH feet Rate Location/Type
09:01AM 40.4324 -80.1657 177° South  Level FlightAware Approximate
09:02AM 40.3792 -80.1126 198° South  Level FlightAware Approximate
09:03AM 40.3256 -80.0605 236° Southwest  Level FlightAware Approximate
09:04AM 40.2884 -79.9878 265° West  Level FlightAware Approximate
09:05AM 40.2769 -80.1558 159° South 204 235 5,000  Level Cleveland Center
09:06AM 40.2183 -80.1264 137° Southeast 241 277 5,600 1,000 Climbing Cleveland Center
09:07AM 40.1764 -80.0750 140° Southeast 216 249 7,000 1,500 Climbing Cleveland Center
09:08AM 40.1325 -80.0264 137° Southeast 211 243 8,600 1,450 Climbing Cleveland Center
09:09AM 40.0928 -79.9778 140° Southeast 205 236 9,900 1,200 Climbing Cleveland Center
09:10AM 40.0464 -79.9267 137° Southeast 210 242 11,000 1,150 Climbing Cleveland Center
09:11AM 40.0003 -79.8703 138° Southeast 215 247 12,200 1,150 Climbing Cleveland Center
09:12AM 39.9519 -79.8139 139° Southeast 220 253 13,300 1,050 Climbing Cleveland Center
09:13AM 39.8994 -79.7550 139° Southeast 231 266 14,300 850 Climbing Cleveland Center
09:14AM 39.8469 -79.6961 138° Southeast 242 278 15,000 350 Climbing Cleveland Center
09:15AM 39.7922 -79.6322 139° Southeast 252 290 15,000  Level Cleveland Center
09:16AM 39.7311 -79.5628 138° Southeast 274 315 15,000  Level Cleveland Center
09:17AM 39.6722 -79.4936 139° Southeast 284 327 15,000  Level Cleveland Center
09:18AM 39.6111 -79.4244 139° Southeast 284 327 15,000  Level Cleveland Center
09:18AM 39.5708 -79.3794 138° Southeast 291 335 15,000  Level Washington Center
09:19AM 39.5106 -79.3092 141° Southeast 291 335 15,000 51 Level Washington Center
09:20AM 39.4419 -79.2383 124° Southeast 306 352 15,100 49 Climbing Washington Center
09:21AM 39.3944 -79.1472 110° East 312 359 15,100 -49 Level Washington Center
09:22AM 39.3622 -79.0356 109° East 298 343 15,000 -407 Descending Washington Center
09:23AM 39.3361 -78.9350 113° Southeast 298 343 14,300 -1,109 Descending Washington Center
09:24AM 39.3072 -78.8453 111° Southeast 287 330 12,800 -1,475 Descending Washington Center
09:25AM 39.2767 -78.7419 111° Southeast 287 330 11,300 -1,488 Descending Washington Center
09:26AM 39.2478 -78.6469 111° Southeast 292 336 9,800 -1,169 Descending Washington Center
09:27AM 39.2189 -78.5494 111° Southeast 292 336 9,000 -407 Descending Washington Center
09:28AM 39.1900 -78.4544 99° East 291 335 9,000  Level Washington Center
09:29AM 39.1775 -78.3575 99° East 284 327 9,000 -344 Level Washington Center
09:30AM 39.1653 -78.2581 100° East 279 321 8,300 -419 Descending Washington Center
09:34AM 39.1167 -77.9167 90° East 218 251 6,900 -380 Descending Potomac TRACON
09:35AM 39.1167 -77.8333 108° East 220 253 6,400 -789 Descending Potomac TRACON
09:36AM 39.1000 -77.7667 90° East 211 243 5,400 -1,167 Descending Potomac TRACON
09:37AM 39.1000 -77.7000 108° East 204 235 4,300 -1,158 Descending Potomac TRACON
09:38AM 39.0833 -77.6333 38° Northeast 179 206 3,200 -1,140 Descending Potomac TRACON
09:39AM 39.1167 -77.6000 90° East 127 146 2,000 -942 Descending Potomac TRACON
09:40AM 39.1167 -77.5833 142° Southeast 82 94 1,300 -700 Descending Potomac TRACON
09:41AM 39.1000 -77.5667 142° Southeast 80 92 600 -700 Descending Potomac TRACON